createdAt,value
2023-03-11T00:01:27.040Z,95204.31
2023-03-11T00:04:00.124Z,95217.16
2023-03-11T00:06:35.657Z,95235.00
2023-03-11T00:09:08.592Z,95256.22
2023-03-11T00:11:41.260Z,95248.13
2023-03-11T00:14:13.990Z,95249.66
2023-03-11T00:16:46.724Z,95246.13
2023-03-11T00:19:19.453Z,95254.53
2023-03-11T00:21:53.562Z,95257.09
2023-03-11T00:24:26.289Z,95274.63
2023-03-11T00:26:59.140Z,95271.19
2023-03-11T00:29:31.790Z,95266.66
2023-03-11T00:32:04.479Z,95267.75
2023-03-11T00:34:37.246Z,95248.34
2023-03-11T00:37:11.299Z,95245.25
2023-03-11T00:39:44.120Z,95236.16
2023-03-11T00:42:16.832Z,95242.59
2023-03-11T00:44:49.577Z,95246.03
2023-03-11T00:47:22.220Z,95250.56
2023-03-11T00:49:54.886Z,95252.78
2023-03-11T00:52:29.429Z,95262.31
2023-03-11T00:55:02.133Z,95252.78
2023-03-11T00:57:34.889Z,95260.75
2023-03-11T01:00:11.926Z,95256.53
2023-03-11T01:02:44.782Z,95260.34
2023-03-11T01:05:19.883Z,95258.78
2023-03-11T01:07:53.969Z,95252.22
2023-03-11T01:10:27.092Z,95253.34
2023-03-11T01:12:59.817Z,95246.47
2023-03-11T01:15:34.879Z,95251.00
2023-03-11T01:18:08.346Z,95251.00
2023-03-11T01:20:41.505Z,95253.56
2023-03-11T01:23:15.966Z,95255.44
2023-03-11T01:25:48.720Z,95264.88
2023-03-11T01:28:21.347Z,95258.78
2023-03-11T01:30:54.488Z,95250.34
2023-03-11T01:33:27.230Z,95250.34
2023-03-11T01:35:59.950Z,95248.78
2023-03-11T01:38:34.135Z,95238.81
2023-03-11T01:41:07.109Z,95241.47
2023-03-11T01:43:42.199Z,95253.53
2023-03-11T01:46:17.498Z,95254.31
2023-03-11T01:48:50.864Z,95257.75
2023-03-11T01:51:26.855Z,95243.66
2023-03-11T01:54:03.949Z,95249.00
2023-03-11T01:56:36.700Z,95235.25
2023-03-11T01:59:10.157Z,95226.94
2023-03-11T02:01:45.278Z,95244.44
2023-03-11T02:04:18.437Z,95252.09
2023-03-11T02:06:53.728Z,95248.34
2023-03-11T02:09:28.343Z,95253.66
2023-03-11T02:12:01.044Z,95259.41
2023-03-11T02:14:34.505Z,95261.28
2023-03-11T02:17:07.700Z,95263.63
2023-03-11T02:19:48.057Z,95279.25
2023-03-11T02:22:21.887Z,95256.09
2023-03-11T02:25:00.883Z,95236.38
2023-03-11T02:27:36.429Z,95237.50
2023-03-11T02:30:11.083Z,95229.50
2023-03-11T02:32:44.609Z,95233.28
2023-03-11T02:35:18.133Z,95232.50
2023-03-11T02:37:52.249Z,95222.19
2023-03-11T02:40:42.797Z,95236.25
2023-03-11T02:43:19.154Z,95254.44
2023-03-11T02:45:52.104Z,95266.94
2023-03-11T02:48:25.212Z,95255.53
2023-03-11T02:50:58.789Z,95264.94
2023-03-11T02:53:34.902Z,95247.44
2023-03-11T02:56:07.858Z,95259.63
2023-03-11T02:58:41.959Z,95263.72
2023-03-11T03:01:14.719Z,95253.84
2023-03-11T03:03:47.540Z,95241.34
2023-03-11T03:06:21.452Z,95248.88
2023-03-11T03:08:54.227Z,95256.84
2023-03-11T03:11:26.971Z,95254.53
2023-03-11T03:14:01.374Z,95248.44
2023-03-11T03:16:34.045Z,95252.66
2023-03-11T03:19:06.774Z,95255.31
2023-03-11T03:21:39.454Z,95249.22
2023-03-11T03:24:12.136Z,95254.97
2023-03-11T03:26:44.830Z,95258.72
2023-03-11T03:29:19.053Z,95251.53
2023-03-11T03:31:51.889Z,95247.34
2023-03-11T03:34:24.924Z,95241.25
2023-03-11T03:36:57.666Z,95247.66
2023-03-11T03:39:30.844Z,95228.59
2023-03-11T03:42:03.659Z,95235.81
2023-03-11T03:44:37.828Z,95245.22
2023-03-11T03:47:10.549Z,95233.78
2023-03-11T03:49:43.570Z,95239.13
2023-03-11T03:52:16.416Z,95257.72
2023-03-11T03:54:49.162Z,95267.59
2023-03-11T03:57:21.907Z,95269.13
2023-03-11T03:59:56.055Z,95274.44
2023-03-11T04:02:28.743Z,95252.41
2023-03-11T04:05:01.501Z,95263.81
2023-03-11T04:07:34.917Z,95266.94
2023-03-11T04:10:08.342Z,95266.94
2023-03-11T04:12:41.078Z,95274.13
2023-03-11T04:15:15.272Z,95280.53
2023-03-11T04:17:48.137Z,95289.31
2023-03-11T04:20:20.907Z,95277.13
2023-03-11T04:22:53.561Z,95276.34
2023-03-11T04:25:26.461Z,95265.28
2023-03-11T04:27:59.188Z,95268.25
2023-03-11T04:30:33.335Z,95268.59
2023-03-11T04:33:06.019Z,95269.25
2023-03-11T04:35:39.905Z,95267.25
2023-03-11T04:38:12.680Z,95268.69
2023-03-11T04:40:45.436Z,95269.34
2023-03-11T04:43:18.324Z,95269.56
2023-03-11T04:45:52.779Z,95279.75
2023-03-11T04:48:27.162Z,95276.97
2023-03-11T04:50:59.983Z,95272.63
2023-03-11T04:53:32.899Z,95277.06
2023-03-11T04:56:05.888Z,95276.16
2023-03-11T04:58:38.585Z,95286.66
2023-03-11T05:01:12.655Z,95279.69
2023-03-11T05:03:45.590Z,95296.59
2023-03-11T05:06:18.849Z,95289.94
2023-03-11T05:08:51.573Z,95311.50
2023-03-11T05:11:24.289Z,95313.59
2023-03-11T05:13:57.090Z,95320.53
2023-03-11T05:16:31.559Z,95314.06
2023-03-11T05:19:24.936Z,95326.81
2023-03-11T05:21:57.829Z,95319.59
2023-03-11T05:24:30.831Z,95321.59
2023-03-11T05:27:03.985Z,95331.81
2023-03-11T05:29:36.741Z,95340.94
2023-03-11T05:32:10.970Z,95333.72
2023-03-11T05:34:44.197Z,95322.88
2023-03-11T05:37:17.860Z,95316.53
2023-03-11T05:39:50.609Z,95321.66
2023-03-11T05:42:23.343Z,95334.75
2023-03-11T05:44:56.124Z,95322.59
2023-03-11T05:47:30.286Z,95327.59
2023-03-11T05:50:03.238Z,95324.94
2023-03-11T05:52:36.334Z,95328.25
2023-03-11T05:55:11.996Z,95319.34
2023-03-11T05:57:44.911Z,95311.72
2023-03-11T06:00:20.710Z,95308.00
2023-03-11T06:02:55.020Z,95312.19
2023-03-11T06:05:27.929Z,95319.53
2023-03-11T06:08:01.192Z,95316.56
2023-03-11T06:10:34.179Z,95315.16
2023-03-11T06:13:07.118Z,95315.31
2023-03-11T06:15:40.030Z,95326.03
2023-03-11T06:18:14.284Z,95324.63
2023-03-11T06:20:47.059Z,95329.78
2023-03-11T06:23:20.263Z,95338.94
2023-03-11T06:25:59.171Z,95339.13
2023-03-11T06:28:32.425Z,95342.25
2023-03-11T06:31:08.595Z,95346.09
2023-03-11T06:33:43.140Z,95353.44
2023-03-11T06:36:17.191Z,95366.84
2023-03-11T06:38:50.599Z,95368.38
2023-03-11T06:41:23.994Z,95374.94
2023-03-11T06:44:00.150Z,95378.81
2023-03-11T06:46:32.891Z,95378.66
2023-03-11T06:49:07.253Z,95379.44
2023-03-11T06:51:40.028Z,95380.69
2023-03-11T06:54:13.196Z,95384.59
2023-03-11T06:56:46.195Z,95385.84
2023-03-11T06:59:19.710Z,95395.03
2023-03-11T07:01:52.362Z,95403.47
2023-03-11T07:04:26.876Z,95405.78
2023-03-11T07:06:59.742Z,95404.38
2023-03-11T07:09:32.605Z,95400.63
2023-03-11T07:12:06.794Z,95391.59
2023-03-11T07:14:41.819Z,95398.16
2023-03-11T07:17:14.534Z,95399.69
2023-03-11T07:19:48.975Z,95414.50
2023-03-11T07:22:22.009Z,95406.22
2023-03-11T07:24:55.246Z,95410.75
2023-03-11T07:27:28.838Z,95412.31
2023-03-11T07:30:02.103Z,95425.72
2023-03-11T07:32:35.343Z,95423.53
2023-03-11T07:35:11.284Z,95424.31
2023-03-11T07:37:44.223Z,95425.22
2023-03-11T07:40:17.566Z,95430.22
2023-03-11T07:42:50.384Z,95427.72
2023-03-11T07:45:23.105Z,95422.44
2023-03-11T07:47:56.366Z,95422.25
2023-03-11T07:50:31.051Z,95414.78
2023-03-11T07:53:04.196Z,95412.13
2023-03-11T07:55:37.009Z,95415.22
2023-03-11T07:58:09.764Z,95411.47
2023-03-11T08:00:42.602Z,95409.28
2023-03-11T08:03:15.513Z,95424.88
2023-03-11T08:05:49.860Z,95418.19
2023-03-11T08:08:22.635Z,95430.34
2023-03-11T08:10:55.525Z,95446.38
2023-03-11T08:13:28.427Z,95446.53
2023-03-11T08:16:04.242Z,95442.81
2023-03-11T08:18:37.006Z,95447.44
2023-03-11T08:21:12.935Z,95449.00
2023-03-11T08:23:47.602Z,95451.81
2023-03-11T08:26:21.992Z,95455.88
2023-03-11T08:28:55.909Z,95466.00
2023-03-11T08:31:30.041Z,95462.16
2023-03-11T08:34:05.010Z,95465.41
2023-03-11T08:36:39.709Z,95470.13
2023-03-11T08:39:12.455Z,95471.50
2023-03-11T08:41:45.619Z,95476.34
2023-03-11T08:44:18.663Z,95483.38
2023-03-11T08:46:51.752Z,95481.03
2023-03-11T08:49:24.964Z,95482.13
2023-03-11T08:51:59.712Z,95477.63
2023-03-11T08:54:33.022Z,95482.13
2023-03-11T08:57:05.976Z,95484.63
2023-03-11T08:59:38.869Z,95498.50
2023-03-11T09:02:12.188Z,95491.19
2023-03-11T09:04:45.215Z,95480.88
2023-03-11T09:07:19.421Z,95492.28
2023-03-11T09:09:52.369Z,95490.72
2023-03-11T09:12:25.348Z,95497.25
2023-03-11T09:14:58.105Z,95504.59
2023-03-11T09:17:30.949Z,95502.56
2023-03-11T09:20:04.771Z,95502.84
2023-03-11T09:22:38.978Z,95492.53
2023-03-11T09:25:13.376Z,95511.09
2023-03-11T09:27:46.294Z,95503.44
2023-03-11T09:30:19.659Z,95509.84
2023-03-11T09:32:52.486Z,95503.09
2023-03-11T09:35:25.592Z,95513.25
2023-03-11T09:37:59.838Z,95509.16
2023-03-11T09:40:40.645Z,95518.84
2023-03-11T09:43:18.506Z,95525.84
2023-03-11T09:45:54.824Z,95535.03
2023-03-11T09:48:31.101Z,95534.75
2023-03-11T09:51:09.391Z,95541.91
2023-03-11T09:53:44.618Z,95534.75
2023-03-11T09:56:19.840Z,95542.69
2023-03-11T09:58:53.940Z,95550.66
2023-03-11T10:01:28.455Z,95548.91
2023-03-11T10:04:05.128Z,95547.19
2023-03-11T10:06:38.736Z,95551.84
2023-03-11T10:09:22.833Z,95545.31
2023-03-11T10:12:04.545Z,95548.56
2023-03-11T10:14:52.328Z,95547.28
2023-03-11T10:17:37.560Z,95549.88
2023-03-11T10:20:13.281Z,95549.06
2023-03-11T10:22:51.722Z,95547.50
2023-03-11T10:25:27.973Z,95550.88
2023-03-11T10:28:04.399Z,95550.06
2023-03-11T10:30:39.240Z,95546.91
2023-03-11T10:33:18.859Z,95545.94
2023-03-11T10:35:53.605Z,95545.75
2023-03-11T10:38:27.761Z,95547.44
2023-03-11T10:41:04.942Z,95545.38
2023-03-11T10:43:39.804Z,95540.34
2023-03-11T10:46:18.261Z,95535.59
2023-03-11T10:48:51.364Z,95538.81
2023-03-11T10:51:26.980Z,95539.88
2023-03-11T10:54:01.003Z,95547.13
2023-03-11T10:56:36.286Z,95537.25
2023-03-11T10:59:23.751Z,95544.50
2023-03-11T11:01:58.039Z,95535.66
2023-03-11T11:04:32.454Z,95538.69
2023-03-11T11:07:21.894Z,95541.28
2023-03-11T11:10:13.776Z,95534.75
2023-03-11T11:12:56.410Z,95537.91
2023-03-11T11:15:30.561Z,95529.81
2023-03-11T11:18:05.291Z,95532.06
2023-03-11T11:20:40.485Z,95524.75
2023-03-11T11:23:25.450Z,95525.06
2023-03-11T11:25:58.946Z,95520.84
2023-03-11T11:28:33.929Z,95517.75
2023-03-11T11:31:07.715Z,95519.53
2023-03-11T11:33:41.676Z,95518.75
2023-03-11T11:36:16.103Z,95523.94
2023-03-11T11:38:48.887Z,95516.94
2023-03-11T11:41:23.188Z,95527.13
2023-03-11T11:43:58.967Z,95511.00
2023-03-11T11:46:35.910Z,95512.00
2023-03-11T11:49:13.168Z,95505.44
2023-03-11T11:51:48.754Z,95502.25
2023-03-11T11:54:26.092Z,95503.66
2023-03-11T11:56:59.675Z,95500.19
2023-03-11T11:59:33.758Z,95507.00
2023-03-11T12:02:18.283Z,95504.28
2023-03-11T12:04:54.755Z,95506.94
2023-03-11T12:07:42.333Z,95507.66
2023-03-11T12:10:23.698Z,95493.53
2023-03-11T12:13:11.087Z,95498.41
2023-03-11T12:15:49.205Z,95489.19
2023-03-11T12:18:25.022Z,95486.75
2023-03-11T12:20:57.963Z,95488.22
2023-03-11T12:23:39.528Z,95493.88
2023-03-11T12:26:16.872Z,95480.81
2023-03-11T12:28:53.951Z,95479.91
2023-03-11T12:31:28.924Z,95476.28
2023-03-11T12:34:03.723Z,95486.00
2023-03-11T12:36:37.562Z,95480.00
2023-03-11T12:39:22.067Z,95474.75
2023-03-11T12:42:13.271Z,95475.16
2023-03-11T12:44:46.566Z,95472.84
2023-03-11T12:47:25.010Z,95472.84
2023-03-11T12:50:17.793Z,95475.44
2023-03-11T12:52:54.293Z,95473.06
2023-03-11T12:55:34.716Z,95472.56
2023-03-11T12:58:21.673Z,95478.63
2023-03-11T13:01:04.807Z,95467.06
2023-03-11T13:03:46.096Z,95471.59
2023-03-11T13:06:30.764Z,95471.16
2023-03-11T13:09:04.430Z,95456.94
2023-03-11T13:11:39.840Z,95461.09
2023-03-11T13:14:23.168Z,95458.34
2023-03-11T13:16:56.323Z,95461.38
2023-03-11T13:19:34.426Z,95462.13
2023-03-11T13:22:07.641Z,95457.56
2023-03-11T13:24:52.465Z,95449.63
2023-03-11T13:27:40.316Z,95448.50
2023-03-11T13:30:18.067Z,95448.97
2023-03-11T13:32:59.626Z,95458.69
2023-03-11T13:35:46.070Z,95450.03
2023-03-11T13:38:34.981Z,95459.31
2023-03-11T13:41:15.233Z,95473.97
2023-03-11T13:43:49.484Z,95474.03
2023-03-11T13:46:28.387Z,95470.25
2023-03-11T13:49:05.502Z,95470.28
2023-03-11T13:51:42.410Z,95471.84
2023-03-11T13:54:28.868Z,95474.53
2023-03-11T13:57:02.968Z,95483.69
2023-03-11T13:59:36.279Z,95490.22
2023-03-11T14:02:17.405Z,95485.31
2023-03-11T14:04:51.293Z,95484.22
2023-03-11T14:07:27.435Z,95477.06
2023-03-11T14:10:23.067Z,95474.41
2023-03-11T14:13:14.400Z,95486.00
2023-03-11T14:15:50.526Z,95483.72
2023-03-11T14:18:31.022Z,95483.78
2023-03-11T14:21:05.205Z,95485.69
2023-03-11T14:23:41.799Z,95489.09
2023-03-11T14:26:16.208Z,95503.19
2023-03-11T14:28:50.886Z,95499.66
2023-03-11T14:31:30.856Z,95501.94
2023-03-11T14:34:06.804Z,95496.50
2023-03-11T14:36:43.611Z,95505.22
2023-03-11T14:39:28.259Z,95505.53
2023-03-11T14:42:05.446Z,95505.44
2023-03-11T14:44:40.621Z,95512.22
2023-03-11T14:47:18.556Z,95509.06
2023-03-11T14:49:51.982Z,95508.94
2023-03-11T14:52:31.123Z,95510.31
2023-03-11T14:55:07.228Z,95512.41
2023-03-11T14:57:41.150Z,95510.72
2023-03-11T15:00:16.838Z,95511.34
2023-03-11T15:03:00.913Z,95512.31
2023-03-11T15:05:36.811Z,95507.19
2023-03-11T15:08:10.008Z,95512.38
2023-03-11T15:11:03.258Z,95514.91
2023-03-11T15:13:37.303Z,95506.66
2023-03-11T15:16:23.021Z,95514.19
2023-03-11T15:18:55.729Z,95517.13
2023-03-11T15:21:28.726Z,95505.47
2023-03-11T15:24:04.986Z,95508.41
2023-03-11T15:26:55.067Z,95503.34
2023-03-11T15:29:28.473Z,95512.72
2023-03-11T15:32:01.168Z,95514.91
2023-03-11T15:34:35.449Z,95512.84
2023-03-11T15:37:20.469Z,95510.78
2023-03-11T15:39:53.328Z,95513.69
2023-03-11T15:42:27.733Z,95510.50
2023-03-11T15:45:14.356Z,95517.19
2023-03-11T15:47:48.038Z,95510.13
2023-03-11T15:50:25.220Z,95511.16
2023-03-11T15:52:58.900Z,95515.63
2023-03-11T15:55:31.611Z,95517.78
2023-03-11T15:58:07.887Z,95519.59
2023-03-11T16:00:41.738Z,95516.03
2023-03-11T16:03:14.357Z,95528.09
2023-03-11T16:05:47.398Z,95527.97
2023-03-11T16:08:20.153Z,95519.13
2023-03-11T16:10:52.909Z,95537.69
2023-03-11T16:13:27.110Z,95541.03
2023-03-11T16:15:59.984Z,95544.72
2023-03-11T16:18:33.808Z,95550.41
2023-03-11T16:21:11.639Z,95544.19
2023-03-11T16:23:51.551Z,95544.41
2023-03-11T16:26:24.829Z,95543.56
2023-03-11T16:29:09.081Z,95556.00
2023-03-11T16:31:45.787Z,95558.13
2023-03-11T16:34:19.125Z,95562.88
2023-03-11T16:36:51.869Z,95564.69
2023-03-11T16:39:24.548Z,95568.78
2023-03-11T16:41:57.249Z,95578.91
2023-03-11T16:44:31.390Z,95574.56
2023-03-11T16:47:04.136Z,95586.25
2023-03-11T16:49:36.843Z,95595.69
2023-03-11T16:52:09.672Z,95586.38
2023-03-11T16:54:42.376Z,95592.69
2023-03-11T16:57:15.245Z,95594.81
2023-03-11T16:59:49.499Z,95602.25
2023-03-11T17:02:24.403Z,95599.03
2023-03-11T17:04:57.306Z,95609.47
2023-03-11T17:07:30.060Z,95618.09
2023-03-11T17:10:02.823Z,95613.00
2023-03-11T17:12:36.329Z,95623.53
2023-03-11T17:15:11.285Z,95622.66
2023-03-11T17:17:44.102Z,95624.41
2023-03-11T17:20:16.913Z,95626.19
2023-03-11T17:22:49.731Z,95634.06
2023-03-11T17:25:22.494Z,95626.28
2023-03-11T17:27:55.358Z,95627.25
2023-03-11T17:30:36.889Z,95635.13
2023-03-11T17:33:10.024Z,95634.22
2023-03-11T17:35:42.714Z,95644.00
2023-03-11T17:38:16.575Z,95649.19
2023-03-11T17:40:49.789Z,95652.84
2023-03-11T17:43:22.504Z,95645.81
2023-03-11T17:45:58.662Z,95659.00
2023-03-11T17:48:31.379Z,95662.63
2023-03-11T17:51:07.376Z,95671.63
2023-03-11T17:53:40.538Z,95676.78
2023-03-11T17:56:13.852Z,95678.53
2023-03-11T17:58:47.176Z,95690.63
2023-03-11T18:01:22.247Z,95692.38
2023-03-11T18:03:55.076Z,95690.69
2023-03-11T18:06:27.951Z,95694.78
2023-03-11T18:09:00.633Z,95692.63
2023-03-11T18:11:33.617Z,95694.84
2023-03-11T18:14:07.296Z,95693.94
2023-03-11T18:16:41.471Z,95696.44
2023-03-11T18:19:14.160Z,95692.84
2023-03-11T18:21:46.939Z,95698.06
2023-03-11T18:24:19.662Z,95704.78
2023-03-11T18:26:52.340Z,95701.97
2023-03-11T18:29:25.110Z,95702.94
2023-03-11T18:31:59.221Z,95707.00
2023-03-11T18:34:32.418Z,95703.91
2023-03-11T18:37:05.182Z,95710.63
2023-03-11T18:39:37.988Z,95714.06
2023-03-11T18:42:10.617Z,95722.69
2023-03-11T18:44:43.597Z,95715.03
2023-03-11T18:47:17.662Z,95714.59
2023-03-11T18:49:50.420Z,95721.00
2023-03-11T18:52:24.190Z,95724.75
2023-03-11T18:54:56.901Z,95732.25
2023-03-11T18:57:29.675Z,95738.38
2023-03-11T19:00:02.448Z,95734.13
2023-03-11T19:02:36.579Z,95734.13
2023-03-11T19:05:10.761Z,95729.91
2023-03-11T19:07:43.585Z,95737.13
2023-03-11T19:10:20.172Z,95734.00
2023-03-11T19:12:52.856Z,95739.00
2023-03-11T19:15:25.702Z,95738.22
2023-03-11T19:18:06.911Z,95742.44
2023-03-11T19:20:40.204Z,95743.53
2023-03-11T19:23:12.873Z,95745.88
2023-03-11T19:26:00.655Z,95748.53
2023-03-11T19:28:35.398Z,95749.31
2023-03-11T19:31:08.223Z,95755.88
2023-03-11T19:33:42.949Z,95757.44
2023-03-11T19:36:15.851Z,95751.81
2023-03-11T19:38:48.603Z,95753.81
2023-03-11T19:41:23.122Z,95747.72
2023-03-11T19:43:55.821Z,95753.50
2023-03-11T19:46:29.832Z,95744.44
2023-03-11T19:49:04.691Z,95739.88
2023-03-11T19:51:49.128Z,95747.56
2023-03-11T19:54:23.004Z,95752.56
2023-03-11T19:56:55.749Z,95763.63
2023-03-11T19:59:28.456Z,95760.97
2023-03-11T20:02:01.407Z,95770.50
2023-03-11T20:04:35.576Z,95775.84
2023-03-11T20:07:08.672Z,95777.41
2023-03-11T20:09:41.384Z,95775.06
2023-03-11T20:12:14.117Z,95781.16
2023-03-11T20:14:46.844Z,95781.47
2023-03-11T20:17:19.666Z,95788.34
2023-03-11T20:19:54.436Z,95797.41
2023-03-11T20:22:27.467Z,95793.19
2023-03-11T20:25:00.254Z,95796.97
2023-03-11T20:27:33.648Z,95793.53
2023-03-11T20:30:06.880Z,95795.41
2023-03-11T20:32:39.811Z,95798.38
2023-03-11T20:35:15.239Z,95791.50
2023-03-11T20:37:48.218Z,95792.28
2023-03-11T20:40:21.203Z,95794.47
2023-03-11T20:42:54.317Z,95800.56
2023-03-11T20:45:27.004Z,95799.00
2023-03-11T20:47:59.763Z,95803.25
2023-03-11T20:50:33.855Z,95802.94
2023-03-11T20:53:07.147Z,95802.94
2023-03-11T20:55:41.676Z,95814.34
2023-03-11T20:58:14.457Z,95813.56
2023-03-11T21:00:47.217Z,95815.44
2023-03-11T21:03:20.034Z,95815.44
2023-03-11T21:05:54.326Z,95816.22
2023-03-11T21:08:27.255Z,95808.56
2023-03-11T21:11:01.185Z,95808.56
2023-03-11T21:13:35.917Z,95810.13
2023-03-11T21:16:15.215Z,95817.00
2023-03-11T21:18:49.533Z,95817.31
2023-03-11T21:21:24.008Z,95824.97
2023-03-11T21:23:56.970Z,95825.75
2023-03-11T21:26:29.748Z,95831.09
2023-03-11T21:29:02.772Z,95836.09
2023-03-11T21:31:35.606Z,95828.41
2023-03-11T21:34:10.647Z,95835.31
2023-03-11T21:36:44.912Z,95831.56
2023-03-11T21:39:17.996Z,95832.34
2023-03-11T21:41:53.241Z,95834.22
2023-03-11T21:44:26.193Z,95838.41
2023-03-11T21:46:59.061Z,95829.34
2023-03-11T21:49:31.872Z,95841.22
2023-03-11T21:52:06.122Z,95833.25
2023-03-11T21:54:38.901Z,95842.00
2023-03-11T21:57:12.604Z,95837.78
2023-03-11T21:59:45.492Z,95843.09
2023-03-11T22:02:18.718Z,95834.03
2023-03-11T22:04:51.609Z,95836.69
2023-03-11T22:07:25.895Z,95847.78
2023-03-11T22:09:59.103Z,95847.31
2023-03-11T22:12:31.978Z,95851.22
2023-03-11T22:15:05.144Z,95842.78
2023-03-11T22:17:38.054Z,95847.78
2023-03-11T22:20:11.953Z,95856.09
2023-03-11T22:22:46.025Z,95846.53
2023-03-11T22:25:18.751Z,95853.25
2023-03-11T22:27:51.419Z,95856.72
2023-03-11T22:30:24.208Z,95850.59
2023-03-11T22:32:56.930Z,95855.16
2023-03-11T22:35:29.846Z,95852.47
2023-03-11T22:38:04.018Z,95853.25
2023-03-11T22:40:36.774Z,95853.59
2023-03-11T22:43:09.513Z,95858.59
2023-03-11T22:45:42.442Z,95869.69
2023-03-11T22:48:15.297Z,95850.59
2023-03-11T22:50:47.990Z,95863.59
2023-03-11T22:53:23.355Z,95862.50
2023-03-11T22:55:56.235Z,95863.75
2023-03-11T22:58:28.974Z,95855.78
2023-03-11T23:01:04.048Z,95864.53
2023-03-11T23:03:37.370Z,95861.09
2023-03-11T23:06:12.123Z,95867.50
2023-03-11T23:08:46.614Z,95868.75
2023-03-11T23:11:21.225Z,95859.22
2023-03-11T23:13:53.954Z,95871.09
2023-03-11T23:16:27.202Z,95872.19
2023-03-11T23:19:01.133Z,95872.94
2023-03-11T23:21:34.073Z,95876.13
2023-03-11T23:24:10.262Z,95880.34
2023-03-11T23:26:42.929Z,95877.38
2023-03-11T23:29:15.799Z,95872.03
2023-03-11T23:31:48.552Z,95885.50
2023-03-11T23:34:21.233Z,95880.50
2023-03-11T23:36:53.963Z,95877.19
2023-03-11T23:39:30.903Z,95885.16
2023-03-11T23:42:24.154Z,95880.31
2023-03-11T23:44:58.003Z,95882.66
2023-03-11T23:47:30.821Z,95886.88
2023-03-11T23:50:03.632Z,95877.03
2023-03-11T23:52:36.411Z,95879.03
2023-03-11T23:55:11.418Z,95868.38
2023-03-11T23:57:44.516Z,95876.06
